sensor_id;sensor_type;location;lat;lon;timestamp;P1;durP1;ratioP1;P2;durP2;ratioP2
25069;SDS011;13064;48.162;11.536;2023-07-29T00:02:22;4.05;;;3.30;;
25069;SDS011;13064;48.162;11.536;2023-07-29T00:04:50;8.50;;;3.70;;
25069;SDS011;13064;48.162;11.536;2023-07-29T00:07:17;4.28;;;3.45;;
25069;SDS011;13064;48.162;11.536;2023-07-29T00:09:45;5.53;;;3.50;;
25069;SDS011;13064;48.162;11.536;2023-07-29T00:12:12;5.43;;;3.67;;
25069;SDS011;13064;48.162;11.536;2023-07-29T00:14:40;5.30;;;3.60;;
25069;SDS011;13064;48.162;11.536;2023-07-29T00:17:08;5.53;;;3.83;;
25069;SDS011;13064;48.162;11.536;2023-07-29T00:19:35;5.20;;;3.38;;
25069;SDS011;13064;48.162;11.536;2023-07-29T00:22:04;4.15;;;3.47;;
25069;SDS011;13064;48.162;11.536;2023-07-29T00:24:31;5.07;;;3.30;;
25069;SDS011;13064;48.162;11.536;2023-07-29T00:26:59;3.55;;;3.22;;
25069;SDS011;13064;48.162;11.536;2023-07-29T00:29:27;4.22;;;3.17;;
25069;SDS011;13064;48.162;11.536;2023-07-29T00:31:54;3.33;;;3.03;;
25069;SDS011;13064;48.162;11.536;2023-07-29T00:34:22;4.28;;;3.20;;
25069;SDS011;13064;48.162;11.536;2023-07-29T00:36:50;3.45;;;3.10;;
25069;SDS011;13064;48.162;11.536;2023-07-29T00:39:18;4.78;;;3.60;;
25069;SDS011;13064;48.162;11.536;2023-07-29T00:41:46;3.40;;;2.85;;
25069;SDS011;13064;48.162;11.536;2023-07-29T00:44:13;5.38;;;3.60;;
25069;SDS011;13064;48.162;11.536;2023-07-29T00:46:42;4.40;;;3.08;;
25069;SDS011;13064;48.162;11.536;2023-07-29T00:49:12;3.55;;;3.15;;
25069;SDS011;13064;48.162;11.536;2023-07-29T00:51:41;5.60;;;3.00;;
25069;SDS011;13064;48.162;11.536;2023-07-29T00:54:08;3.15;;;2.85;;
25069;SDS011;13064;48.162;11.536;2023-07-29T00:56:36;3.97;;;3.17;;
25069;SDS011;13064;48.162;11.536;2023-07-29T00:59:04;4.20;;;3.13;;
25069;SDS011;13064;48.162;11.536;2023-07-29T01:01:32;5.00;;;3.10;;
25069;SDS011;13064;48.162;11.536;2023-07-29T01:04:00;3.92;;;2.92;;
25069;SDS011;13064;48.162;11.536;2023-07-29T01:11:41;3.35;;;3.05;;
25069;SDS011;13064;48.162;11.536;2023-07-29T01:14:21;5.20;;;3.20;;
25069;SDS011;13064;48.162;11.536;2023-07-29T01:17:00;5.53;;;3.00;;
25069;SDS011;13064;48.162;11.536;2023-07-29T01:22:02;4.82;;;3.20;;
25069;SDS011;13064;48.162;11.536;2023-07-29T01:24:30;4.65;;;3.00;;
25069;SDS011;13064;48.162;11.536;2023-07-29T01:26:57;4.65;;;3.00;;
25069;SDS011;13064;48.162;11.536;2023-07-29T01:29:25;3.30;;;2.83;;
25069;SDS011;13064;48.162;11.536;2023-07-29T01:31:54;8.00;;;2.65;;
25069;SDS011;13064;48.162;11.536;2023-07-29T01:34:26;6.28;;;3.10;;
25069;SDS011;13064;48.162;11.536;2023-07-29T01:36:57;4.03;;;2.70;;
25069;SDS011;13064;48.162;11.536;2023-07-29T01:39:29;5.78;;;2.92;;
25069;SDS011;13064;48.162;11.536;2023-07-29T01:41:59;3.58;;;2.88;;
25069;SDS011;13064;48.162;11.536;2023-07-29T01:44:27;3.83;;;2.83;;
25069;SDS011;13064;48.162;11.536;2023-07-29T01:46:55;3.65;;;2.75;;
25069;SDS011;13064;48.162;11.536;2023-07-29T01:49:23;3.20;;;2.90;;
25069;SDS011;13064;48.162;11.536;2023-07-29T01:51:51;2.83;;;2.63;;
25069;SDS011;13064;48.162;11.536;2023-07-29T01:54:18;3.47;;;2.85;;
25069;SDS011;13064;48.162;11.536;2023-07-29T01:56:46;3.03;;;2.70;;
25069;SDS011;13064;48.162;11.536;2023-07-29T01:59:14;5.50;;;2.97;;
25069;SDS011;13064;48.162;11.536;2023-07-29T02:01:43;4.18;;;3.15;;
25069;SDS011;13064;48.162;11.536;2023-07-29T02:04:11;3.97;;;2.92;;
25069;SDS011;13064;48.162;11.536;2023-07-29T02:06:39;5.03;;;3.80;;
25069;SDS011;13064;48.162;11.536;2023-07-29T02:09:07;3.33;;;3.03;;
25069;SDS011;13064;48.162;11.536;2023-07-29T02:11:34;4.90;;;3.22;;
25069;SDS011;13064;48.162;11.536;2023-07-29T02:14:02;3.92;;;2.85;;
25069;SDS011;13064;48.162;11.536;2023-07-29T02:16:30;7.60;;;2.78;;
25069;SDS011;13064;48.162;11.536;2023-07-29T02:18:59;4.35;;;3.47;;
25069;SDS011;13064;48.162;11.536;2023-07-29T02:21:27;3.45;;;3.10;;
25069;SDS011;13064;48.162;11.536;2023-07-29T02:23:54;4.75;;;3.60;;
25069;SDS011;13064;48.162;11.536;2023-07-29T02:26:22;4.78;;;3.40;;
25069;SDS011;13064;48.162;11.536;2023-07-29T02:28:50;5.53;;;3.10;;
25069;SDS011;13064;48.162;11.536;2023-07-29T02:31:20;4.10;;;3.17;;
25069;SDS011;13064;48.162;11.536;2023-07-29T02:33:48;3.45;;;3.00;;
25069;SDS011;13064;48.162;11.536;2023-07-29T02:36:16;5.07;;;2.90;;
25069;SDS011;13064;48.162;11.536;2023-07-29T02:38:45;3.58;;;3.17;;
25069;SDS011;13064;48.162;11.536;2023-07-29T02:41:13;4.43;;;3.20;;
25069;SDS011;13064;48.162;11.536;2023-07-29T02:43:43;4.65;;;2.92;;
25069;SDS011;13064;48.162;11.536;2023-07-29T02:46:11;4.35;;;3.10;;
25069;SDS011;13064;48.162;11.536;2023-07-29T02:48:38;3.30;;;3.00;;
25069;SDS011;13064;48.162;11.536;2023-07-29T02:51:06;2.97;;;2.63;;
25069;SDS011;13064;48.162;11.536;2023-07-29T02:53:33;3.05;;;2.72;;
25069;SDS011;13064;48.162;11.536;2023-07-29T02:56:03;7.97;;;3.13;;
25069;SDS011;13064;48.162;11.536;2023-07-29T02:58:31;3.75;;;3.00;;
25069;SDS011;13064;48.162;11.536;2023-07-29T03:01:02;3.22;;;2.92;;
25069;SDS011;13064;48.162;11.536;2023-07-29T03:03:30;5.72;;;2.75;;
25069;SDS011;13064;48.162;11.536;2023-07-29T03:05:59;3.10;;;2.80;;
25069;SDS011;13064;48.162;11.536;2023-07-29T03:08:27;3.28;;;2.85;;
25069;SDS011;13064;48.162;11.536;2023-07-29T03:10:56;2.67;;;2.42;;
25069;SDS011;13064;48.162;11.536;2023-07-29T03:13:23;3.03;;;2.58;;
25069;SDS011;13064;48.162;11.536;2023-07-29T03:15:51;3.95;;;2.80;;
25069;SDS011;13064;48.162;11.536;2023-07-29T03:18:19;3.90;;;2.90;;
25069;SDS011;13064;48.162;11.536;2023-07-29T03:20:48;3.83;;;2.88;;
25069;SDS011;13064;48.162;11.536;2023-07-29T03:23:16;4.22;;;2.70;;
25069;SDS011;13064;48.162;11.536;2023-07-29T03:25:43;3.35;;;2.70;;
25069;SDS011;13064;48.162;11.536;2023-07-29T03:28:11;2.75;;;2.50;;
25069;SDS011;13064;48.162;11.536;2023-07-29T03:30:39;3.72;;;2.95;;
25069;SDS011;13064;48.162;11.536;2023-07-29T03:33:07;3.70;;;2.65;;
25069;SDS011;13064;48.162;11.536;2023-07-29T03:35:35;2.80;;;2.47;;
25069;SDS011;13064;48.162;11.536;2023-07-29T03:38:02;3.60;;;2.60;;
25069;SDS011;13064;48.162;11.536;2023-07-29T03:40:30;3.20;;;2.60;;
25069;SDS011;13064;48.162;11.536;2023-07-29T03:42:57;5.38;;;2.65;;
25069;SDS011;13064;48.162;11.536;2023-07-29T03:45:25;2.83;;;2.40;;
25069;SDS011;13064;48.162;11.536;2023-07-29T03:47:53;4.03;;;2.50;;
25069;SDS011;13064;48.162;11.536;2023-07-29T03:50:21;4.63;;;2.80;;
25069;SDS011;13064;48.162;11.536;2023-07-29T03:52:48;3.58;;;2.67;;
25069;SDS011;13064;48.162;11.536;2023-07-29T03:55:16;3.30;;;2.65;;
25069;SDS011;13064;48.162;11.536;2023-07-29T03:57:44;3.08;;;2.72;;
25069;SDS011;13064;48.162;11.536;2023-07-29T04:00:11;3.58;;;2.30;;
25069;SDS011;13064;48.162;11.536;2023-07-29T04:02:42;3.55;;;2.42;;
25069;SDS011;13064;48.162;11.536;2023-07-29T04:05:12;4.35;;;2.72;;
25069;SDS011;13064;48.162;11.536;2023-07-29T04:07:40;2.60;;;2.40;;
25069;SDS011;13064;48.162;11.536;2023-07-29T04:10:08;4.03;;;2.47;;
25069;SDS011;13064;48.162;11.536;2023-07-29T04:12:36;3.00;;;2.70;;
25069;SDS011;13064;48.162;11.536;2023-07-29T04:15:03;4.75;;;2.50;;
25069;SDS011;13064;48.162;11.536;2023-07-29T04:17:31;2.75;;;2.20;;
25069;SDS011;13064;48.162;11.536;2023-07-29T04:19:59;2.45;;;2.25;;
25069;SDS011;13064;48.162;11.536;2023-07-29T04:22:32;2.65;;;2.35;;
25069;SDS011;13064;48.162;11.536;2023-07-29T04:25:00;4.00;;;2.50;;
25069;SDS011;13064;48.162;11.536;2023-07-29T04:27:27;3.47;;;2.58;;
25069;SDS011;13064;48.162;11.536;2023-07-29T04:29:55;2.80;;;2.60;;
25069;SDS011;13064;48.162;11.536;2023-07-29T04:32:23;3.50;;;2.47;;
25069;SDS011;13064;48.162;11.536;2023-07-29T04:34:50;3.67;;;2.50;;
25069;SDS011;13064;48.162;11.536;2023-07-29T04:37:18;2.55;;;2.35;;
25069;SDS011;13064;48.162;11.536;2023-07-29T04:39:45;3.00;;;2.42;;
25069;SDS011;13064;48.162;11.536;2023-07-29T04:42:13;3.00;;;2.70;;
25069;SDS011;13064;48.162;11.536;2023-07-29T04:44:41;5.82;;;2.60;;
25069;SDS011;13064;48.162;11.536;2023-07-29T04:47:09;4.38;;;2.50;;
25069;SDS011;13064;48.162;11.536;2023-07-29T04:49:37;3.42;;;2.70;;
25069;SDS011;13064;48.162;11.536;2023-07-29T04:52:05;4.63;;;2.30;;
25069;SDS011;13064;48.162;11.536;2023-07-29T04:54:33;4.07;;;2.60;;
25069;SDS011;13064;48.162;11.536;2023-07-29T04:57:00;4.82;;;2.65;;
25069;SDS011;13064;48.162;11.536;2023-07-29T04:59:28;3.38;;;2.60;;
25069;SDS011;13064;48.162;11.536;2023-07-29T05:01:56;3.92;;;2.53;;
25069;SDS011;13064;48.162;11.536;2023-07-29T05:04:23;3.17;;;2.30;;
25069;SDS011;13064;48.162;11.536;2023-07-29T05:06:51;3.88;;;2.42;;
25069;SDS011;13064;48.162;11.536;2023-07-29T05:09:19;4.10;;;2.55;;
25069;SDS011;13064;48.162;11.536;2023-07-29T05:11:47;2.85;;;2.17;;
25069;SDS011;13064;48.162;11.536;2023-07-29T05:14:16;4.75;;;2.03;;
25069;SDS011;13064;48.162;11.536;2023-07-29T05:16:44;2.97;;;2.10;;
25069;SDS011;13064;48.162;11.536;2023-07-29T05:19:12;2.38;;;2.17;;
25069;SDS011;13064;48.162;11.536;2023-07-29T05:21:39;4.40;;;2.42;;
25069;SDS011;13064;48.162;11.536;2023-07-29T05:24:07;3.00;;;2.13;;
25069;SDS011;13064;48.162;11.536;2023-07-29T05:26:35;4.50;;;2.50;;
25069;SDS011;13064;48.162;11.536;2023-07-29T05:29:03;2.30;;;2.10;;
25069;SDS011;13064;48.162;11.536;2023-07-29T05:31:31;2.40;;;2.20;;
25069;SDS011;13064;48.162;11.536;2023-07-29T05:33:58;3.92;;;2.03;;
25069;SDS011;13064;48.162;11.536;2023-07-29T05:36:26;2.38;;;2.10;;
25069;SDS011;13064;48.162;11.536;2023-07-29T05:38:54;2.28;;;2.08;;
25069;SDS011;13064;48.162;11.536;2023-07-29T05:41:22;3.13;;;2.17;;
25069;SDS011;13064;48.162;11.536;2023-07-29T05:43:49;2.28;;;2.08;;
25069;SDS011;13064;48.162;11.536;2023-07-29T05:46:17;5.40;;;2.13;;
25069;SDS011;13064;48.162;11.536;2023-07-29T05:48:45;3.42;;;2.22;;
25069;SDS011;13064;48.162;11.536;2023-07-29T05:51:13;2.95;;;2.20;;
25069;SDS011;13064;48.162;11.536;2023-07-29T05:53:40;2.20;;;2.00;;
25069;SDS011;13064;48.162;11.536;2023-07-29T05:56:08;3.03;;;2.10;;
25069;SDS011;13064;48.162;11.536;2023-07-29T05:58:37;2.00;;;1.90;;
25069;SDS011;13064;48.162;11.536;2023-07-29T06:01:06;3.28;;;2.05;;
25069;SDS011;13064;48.162;11.536;2023-07-29T06:03:34;2.13;;;1.70;;
25069;SDS011;13064;48.162;11.536;2023-07-29T06:06:01;2.00;;;1.77;;
25069;SDS011;13064;48.162;11.536;2023-07-29T06:08:29;2.17;;;1.98;;
25069;SDS011;13064;48.162;11.536;2023-07-29T06:10:59;3.13;;;2.22;;
25069;SDS011;13064;48.162;11.536;2023-07-29T06:13:27;2.65;;;2.08;;
25069;SDS011;13064;48.162;11.536;2023-07-29T06:15:55;4.18;;;1.98;;
25069;SDS011;13064;48.162;11.536;2023-07-29T06:18:23;4.20;;;2.10;;
25069;SDS011;13064;48.162;11.536;2023-07-29T06:20:51;3.67;;;2.30;;
25069;SDS011;13064;48.162;11.536;2023-07-29T06:23:19;2.63;;;2.30;;
25069;SDS011;13064;48.162;11.536;2023-07-29T06:25:46;3.03;;;2.40;;
25069;SDS011;13064;48.162;11.536;2023-07-29T06:28:14;2.35;;;2.15;;
25069;SDS011;13064;48.162;11.536;2023-07-29T06:30:41;3.50;;;2.08;;
25069;SDS011;13064;48.162;11.536;2023-07-29T06:33:09;3.55;;;2.63;;
25069;SDS011;13064;48.162;11.536;2023-07-29T06:35:37;3.65;;;2.40;;
25069;SDS011;13064;48.162;11.536;2023-07-29T06:38:04;2.72;;;2.17;;
25069;SDS011;13064;48.162;11.536;2023-07-29T06:40:32;3.65;;;1.92;;
25069;SDS011;13064;48.162;11.536;2023-07-29T06:42:59;2.22;;;2.03;;
25069;SDS011;13064;48.162;11.536;2023-07-29T06:45:27;2.65;;;2.10;;
25069;SDS011;13064;48.162;11.536;2023-07-29T06:47:55;3.38;;;2.00;;
25069;SDS011;13064;48.162;11.536;2023-07-29T06:50:22;2.80;;;2.05;;
25069;SDS011;13064;48.162;11.536;2023-07-29T06:52:50;3.55;;;2.25;;
25069;SDS011;13064;48.162;11.536;2023-07-29T06:55:18;2.55;;;2.15;;
25069;SDS011;13064;48.162;11.536;2023-07-29T06:57:45;9.98;;;2.67;;
25069;SDS011;13064;48.162;11.536;2023-07-29T07:00:13;6.20;;;2.85;;
25069;SDS011;13064;48.162;11.536;2023-07-29T07:02:41;5.78;;;2.83;;
25069;SDS011;13064;48.162;11.536;2023-07-29T07:05:08;5.43;;;3.30;;
25069;SDS011;13064;48.162;11.536;2023-07-29T07:07:36;4.75;;;2.90;;
25069;SDS011;13064;48.162;11.536;2023-07-29T07:10:04;3.95;;;3.00;;
25069;SDS011;13064;48.162;11.536;2023-07-29T07:12:32;4.65;;;3.03;;
25069;SDS011;13064;48.162;11.536;2023-07-29T07:15:00;4.55;;;3.10;;
25069;SDS011;13064;48.162;11.536;2023-07-29T07:17:27;4.43;;;3.30;;
25069;SDS011;13064;48.162;11.536;2023-07-29T07:19:55;5.80;;;3.55;;
25069;SDS011;13064;48.162;11.536;2023-07-29T07:22:23;4.85;;;3.30;;
25069;SDS011;13064;48.162;11.536;2023-07-29T07:24:50;5.00;;;3.40;;
25069;SDS011;13064;48.162;11.536;2023-07-29T07:27:18;4.80;;;3.38;;
25069;SDS011;13064;48.162;11.536;2023-07-29T07:29:45;5.63;;;3.47;;
25069;SDS011;13064;48.162;11.536;2023-07-29T07:32:13;4.70;;;3.72;;
25069;SDS011;13064;48.162;11.536;2023-07-29T07:34:41;4.50;;;3.47;;
25069;SDS011;13064;48.162;11.536;2023-07-29T07:37:08;8.32;;;3.70;;
25069;SDS011;13064;48.162;11.536;2023-07-29T07:39:36;5.70;;;3.67;;
25069;SDS011;13064;48.162;11.536;2023-07-29T07:42:04;5.22;;;4.05;;
25069;SDS011;13064;48.162;11.536;2023-07-29T07:44:31;5.05;;;3.70;;
25069;SDS011;13064;48.162;11.536;2023-07-29T07:46:59;5.20;;;3.83;;
25069;SDS011;13064;48.162;11.536;2023-07-29T07:49:30;6.95;;;3.90;;
25069;SDS011;13064;48.162;11.536;2023-07-29T07:51:58;5.65;;;4.00;;
25069;SDS011;13064;48.162;11.536;2023-07-29T07:54:25;5.00;;;3.72;;
25069;SDS011;13064;48.162;11.536;2023-07-29T07:56:53;7.72;;;3.60;;
25069;SDS011;13064;48.162;11.536;2023-07-29T07:59:21;6.20;;;3.95;;
25069;SDS011;13064;48.162;11.536;2023-07-29T08:01:48;5.40;;;3.55;;
25069;SDS011;13064;48.162;11.536;2023-07-29T08:04:16;7.07;;;3.58;;
25069;SDS011;13064;48.162;11.536;2023-07-29T08:06:43;5.45;;;3.40;;
25069;SDS011;13064;48.162;11.536;2023-07-29T08:09:11;8.38;;;3.75;;
25069;SDS011;13064;48.162;11.536;2023-07-29T08:11:39;4.57;;;3.10;;
25069;SDS011;13064;48.162;11.536;2023-07-29T08:14:06;3.70;;;3.35;;
25069;SDS011;13064;48.162;11.536;2023-07-29T08:16:34;6.30;;;3.50;;
25069;SDS011;13064;48.162;11.536;2023-07-29T08:19:02;7.90;;;3.90;;
25069;SDS011;13064;48.162;11.536;2023-07-29T08:21:29;4.30;;;3.30;;
25069;SDS011;13064;48.162;11.536;2023-07-29T08:23:57;5.38;;;3.67;;
25069;SDS011;13064;48.162;11.536;2023-07-29T08:26:25;4.38;;;3.47;;
25069;SDS011;13064;48.162;11.536;2023-07-29T08:28:52;5.22;;;3.83;;
25069;SDS011;13064;48.162;11.536;2023-07-29T08:31:21;3.85;;;3.42;;
25069;SDS011;13064;48.162;11.536;2023-07-29T08:33:48;5.18;;;3.53;;
25069;SDS011;13064;48.162;11.536;2023-07-29T08:36:16;3.75;;;3.25;;
25069;SDS011;13064;48.162;11.536;2023-07-29T08:38:43;3.80;;;3.40;;
25069;SDS011;13064;48.162;11.536;2023-07-29T08:41:29;4.53;;;3.60;;
25069;SDS011;13064;48.162;11.536;2023-07-29T08:43:59;3.15;;;2.72;;
25069;SDS011;13064;48.162;11.536;2023-07-29T08:46:29;4.07;;;3.23;;
25069;SDS011;13064;48.162;11.536;2023-07-29T08:48:57;3.67;;;3.20;;
25069;SDS011;13064;48.162;11.536;2023-07-29T08:51:25;3.85;;;3.15;;
25069;SDS011;13064;48.162;11.536;2023-07-29T08:53:53;3.97;;;3.55;;
25069;SDS011;13064;48.162;11.536;2023-07-29T08:56:21;3.42;;;3.10;;
25069;SDS011;13064;48.162;11.536;2023-07-29T08:58:48;3.63;;;2.85;;
25069;SDS011;13064;48.162;11.536;2023-07-29T09:01:16;3.55;;;3.22;;
25069;SDS011;13064;48.162;11.536;2023-07-29T09:03:44;3.90;;;3.22;;
25069;SDS011;13064;48.162;11.536;2023-07-29T09:06:11;5.15;;;3.10;;
25069;SDS011;13064;48.162;11.536;2023-07-29T09:08:41;3.35;;;3.00;;
25069;SDS011;13064;48.162;11.536;2023-07-29T09:11:08;3.85;;;3.33;;
25069;SDS011;13064;48.162;11.536;2023-07-29T09:13:36;5.05;;;3.50;;
25069;SDS011;13064;48.162;11.536;2023-07-29T09:16:04;4.95;;;3.22;;
25069;SDS011;13064;48.162;11.536;2023-07-29T09:18:32;4.78;;;2.90;;
25069;SDS011;13064;48.162;11.536;2023-07-29T09:21:00;4.03;;;3.15;;
25069;SDS011;13064;48.162;11.536;2023-07-29T09:23:27;7.90;;;2.95;;
25069;SDS011;13064;48.162;11.536;2023-07-29T09:26:01;4.57;;;3.13;;
25069;SDS011;13064;48.162;11.536;2023-07-29T09:28:37;3.33;;;2.88;;
25069;SDS011;13064;48.162;11.536;2023-07-29T09:31:06;3.83;;;2.90;;
25069;SDS011;13064;48.162;11.536;2023-07-29T09:33:34;4.38;;;3.45;;
25069;SDS011;13064;48.162;11.536;2023-07-29T09:36:09;5.00;;;2.67;;
25069;SDS011;13064;48.162;11.536;2023-07-29T09:38:37;4.32;;;3.42;;
25069;SDS011;13064;48.162;11.536;2023-07-29T09:41:05;4.57;;;3.03;;
25069;SDS011;13064;48.162;11.536;2023-07-29T09:43:34;3.75;;;3.15;;
25069;SDS011;13064;48.162;11.536;2023-07-29T09:46:03;4.38;;;3.10;;
25069;SDS011;13064;48.162;11.536;2023-07-29T09:48:37;3.95;;;3.50;;
25069;SDS011;13064;48.162;11.536;2023-07-29T09:51:11;4.47;;;3.10;;
25069;SDS011;13064;48.162;11.536;2023-07-29T09:53:40;3.50;;;3.20;;
25069;SDS011;13064;48.162;11.536;2023-07-29T09:56:12;4.05;;;3.10;;
25069;SDS011;13064;48.162;11.536;2023-07-29T09:58:40;3.15;;;2.85;;
25069;SDS011;13064;48.162;11.536;2023-07-29T10:01:09;4.25;;;3.00;;
25069;SDS011;13064;48.162;11.536;2023-07-29T10:03:37;4.07;;;3.05;;
25069;SDS011;13064;48.162;11.536;2023-07-29T10:06:05;3.97;;;2.90;;
25069;SDS011;13064;48.162;11.536;2023-07-29T10:08:33;5.10;;;2.90;;
25069;SDS011;13064;48.162;11.536;2023-07-29T10:11:02;5.28;;;3.25;;
25069;SDS011;13064;48.162;11.536;2023-07-29T10:13:30;3.47;;;3.10;;
25069;SDS011;13064;48.162;11.536;2023-07-29T10:15:58;3.97;;;3.13;;
25069;SDS011;13064;48.162;11.536;2023-07-29T10:18:29;3.22;;;2.95;;
25069;SDS011;13064;48.162;11.536;2023-07-29T10:20:58;4.57;;;3.15;;
25069;SDS011;13064;48.162;11.536;2023-07-29T10:23:27;3.25;;;2.90;;
25069;SDS011;13064;48.162;11.536;2023-07-29T10:28:23;3.38;;;3.03;;
25069;SDS011;13064;48.162;11.536;2023-07-29T10:30:53;4.70;;;2.95;;
25069;SDS011;13064;48.162;11.536;2023-07-29T10:33:21;3.20;;;2.78;;
25069;SDS011;13064;48.162;11.536;2023-07-29T10:35:48;3.67;;;2.47;;
25069;SDS011;13064;48.162;11.536;2023-07-29T10:38:16;3.35;;;2.60;;
25069;SDS011;13064;48.162;11.536;2023-07-29T10:40:49;3.40;;;3.10;;
25069;SDS011;13064;48.162;11.536;2023-07-29T10:43:24;5.05;;;2.83;;
25069;SDS011;13064;48.162;11.536;2023-07-29T10:45:52;4.43;;;2.60;;
25069;SDS011;13064;48.162;11.536;2023-07-29T10:48:40;3.13;;;2.85;;
25069;SDS011;13064;48.162;11.536;2023-07-29T10:54:02;6.93;;;3.20;;
25069;SDS011;13064;48.162;11.536;2023-07-29T10:56:30;5.68;;;3.03;;
25069;SDS011;13064;48.162;11.536;2023-07-29T10:58:59;6.22;;;3.05;;
25069;SDS011;13064;48.162;11.536;2023-07-29T11:01:30;3.45;;;3.05;;
25069;SDS011;13064;48.162;11.536;2023-07-29T11:09:40;4.05;;;2.92;;
25069;SDS011;13064;48.162;11.536;2023-07-29T11:14:55;3.58;;;2.90;;
25069;SDS011;13064;48.162;11.536;2023-07-29T11:17:22;3.05;;;2.38;;
25069;SDS011;13064;48.162;11.536;2023-07-29T11:19:50;2.20;;;2.00;;
25069;SDS011;13064;48.162;11.536;2023-07-29T11:22:18;3.22;;;1.90;;
25069;SDS011;13064;48.162;11.536;2023-07-29T11:24:45;3.22;;;1.88;;
25069;SDS011;13064;48.162;11.536;2023-07-29T11:27:13;2.00;;;1.80;;
25069;SDS011;13064;48.162;11.536;2023-07-29T11:29:40;2.90;;;1.73;;
25069;SDS011;13064;48.162;11.536;2023-07-29T11:32:09;1.92;;;1.73;;
25069;SDS011;13064;48.162;11.536;2023-07-29T11:34:36;3.45;;;2.03;;
25069;SDS011;13064;48.162;11.536;2023-07-29T11:37:04;2.70;;;1.90;;
25069;SDS011;13064;48.162;11.536;2023-07-29T11:39:33;2.42;;;2.00;;
25069;SDS011;13064;48.162;11.536;2023-07-29T11:42:00;1.77;;;1.67;;
25069;SDS011;13064;48.162;11.536;2023-07-29T11:44:28;2.80;;;1.92;;
25069;SDS011;13064;48.162;11.536;2023-07-29T11:46:55;2.22;;;1.85;;
25069;SDS011;13064;48.162;11.536;2023-07-29T11:49:23;2.00;;;1.80;;
25069;SDS011;13064;48.162;11.536;2023-07-29T11:51:51;2.05;;;1.95;;
25069;SDS011;13064;48.162;11.536;2023-07-29T11:54:20;2.10;;;1.77;;
25069;SDS011;13064;48.162;11.536;2023-07-29T11:56:48;3.40;;;2.15;;
25069;SDS011;13064;48.162;11.536;2023-07-29T11:59:16;2.20;;;2.00;;
25069;SDS011;13064;48.162;11.536;2023-07-29T12:01:43;2.85;;;2.17;;
25069;SDS011;13064;48.162;11.536;2023-07-29T12:04:12;2.53;;;2.10;;
25069;SDS011;13064;48.162;11.536;2023-07-29T12:06:40;3.35;;;2.20;;
25069;SDS011;13064;48.162;11.536;2023-07-29T12:09:08;2.35;;;2.15;;
25069;SDS011;13064;48.162;11.536;2023-07-29T12:11:35;2.25;;;1.88;;
25069;SDS011;13064;48.162;11.536;2023-07-29T12:14:03;2.17;;;1.98;;
25069;SDS011;13064;48.162;11.536;2023-07-29T12:16:41;2.28;;;2.08;;
25069;SDS011;13064;48.162;11.536;2023-07-29T12:19:11;2.25;;;2.05;;
25069;SDS011;13064;48.162;11.536;2023-07-29T12:24:07;2.50;;;2.30;;
25069;SDS011;13064;48.162;11.536;2023-07-29T12:26:37;2.63;;;2.42;;
25069;SDS011;13064;48.162;11.536;2023-07-29T12:29:12;2.80;;;2.40;;
25069;SDS011;13064;48.162;11.536;2023-07-29T12:31:39;3.08;;;2.20;;
25069;SDS011;13064;48.162;11.536;2023-07-29T12:34:08;3.00;;;2.63;;
25069;SDS011;13064;48.162;11.536;2023-07-29T12:36:43;3.75;;;2.58;;
25069;SDS011;13064;48.162;11.536;2023-07-29T12:39:21;2.60;;;2.40;;
25069;SDS011;13064;48.162;11.536;2023-07-29T12:41:50;2.55;;;2.35;;
25069;SDS011;13064;48.162;11.536;2023-07-29T12:44:17;2.65;;;2.45;;
25069;SDS011;13064;48.162;11.536;2023-07-29T12:46:45;3.65;;;2.80;;
25069;SDS011;13064;48.162;11.536;2023-07-29T12:49:13;3.20;;;2.88;;
25069;SDS011;13064;48.162;11.536;2023-07-29T12:51:41;6.13;;;3.08;;
25069;SDS011;13064;48.162;11.536;2023-07-29T12:54:09;5.50;;;2.70;;
25069;SDS011;13064;48.162;11.536;2023-07-29T12:56:37;11.88;;;4.32;;
25069;SDS011;13064;48.162;11.536;2023-07-29T12:59:05;5.53;;;2.65;;
25069;SDS011;13064;48.162;11.536;2023-07-29T13:01:33;4.00;;;2.67;;
25069;SDS011;13064;48.162;11.536;2023-07-29T13:04:00;7.03;;;3.00;;
25069;SDS011;13064;48.162;11.536;2023-07-29T13:06:28;4.55;;;3.20;;
25069;SDS011;13064;48.162;11.536;2023-07-29T13:08:58;4.03;;;3.30;;
25069;SDS011;13064;48.162;11.536;2023-07-29T13:11:26;6.63;;;3.65;;
25069;SDS011;13064;48.162;11.536;2023-07-29T13:13:54;6.78;;;3.80;;
25069;SDS011;13064;48.162;11.536;2023-07-29T13:16:22;10.65;;;4.25;;
25069;SDS011;13064;48.162;11.536;2023-07-29T13:18:49;7.40;;;4.13;;
25069;SDS011;13064;48.162;11.536;2023-07-29T13:21:17;8.15;;;4.57;;
25069;SDS011;13064;48.162;11.536;2023-07-29T13:23:45;7.22;;;4.50;;
25069;SDS011;13064;48.162;11.536;2023-07-29T13:26:12;6.28;;;4.57;;
25069;SDS011;13064;48.162;11.536;2023-07-29T13:28:40;9.63;;;5.03;;
25069;SDS011;13064;48.162;11.536;2023-07-29T13:31:07;7.10;;;4.53;;
25069;SDS011;13064;48.162;11.536;2023-07-29T13:33:35;8.88;;;5.78;;
25069;SDS011;13064;48.162;11.536;2023-07-29T13:36:03;11.30;;;6.13;;
25069;SDS011;13064;48.162;11.536;2023-07-29T13:38:30;8.77;;;5.75;;
25069;SDS011;13064;48.162;11.536;2023-07-29T13:40:58;10.57;;;6.00;;
25069;SDS011;13064;48.162;11.536;2023-07-29T13:43:26;11.48;;;6.32;;
25069;SDS011;13064;48.162;11.536;2023-07-29T13:45:53;10.70;;;8.48;;
25069;SDS011;13064;48.162;11.536;2023-07-29T13:48:21;8.50;;;5.35;;
25069;SDS011;13064;48.162;11.536;2023-07-29T13:50:49;6.95;;;5.38;;
25069;SDS011;13064;48.162;11.536;2023-07-29T13:53:17;7.72;;;5.15;;
25069;SDS011;13064;48.162;11.536;2023-07-29T13:55:45;6.25;;;5.40;;
25069;SDS011;13064;48.162;11.536;2023-07-29T13:58:13;7.30;;;4.93;;
25069;SDS011;13064;48.162;11.536;2023-07-29T14:00:40;7.43;;;4.60;;
25069;SDS011;13064;48.162;11.536;2023-07-29T14:03:10;7.63;;;5.35;;
25069;SDS011;13064;48.162;11.536;2023-07-29T14:05:38;6.55;;;4.97;;
25069;SDS011;13064;48.162;11.536;2023-07-29T14:08:06;6.90;;;4.47;;
25069;SDS011;13064;48.162;11.536;2023-07-29T14:10:34;8.13;;;5.60;;
25069;SDS011;13064;48.162;11.536;2023-07-29T14:13:02;7.10;;;5.70;;
25069;SDS011;13064;48.162;11.536;2023-07-29T14:15:30;9.50;;;5.18;;
25069;SDS011;13064;48.162;11.536;2023-07-29T14:17:59;7.35;;;4.80;;
25069;SDS011;13064;48.162;11.536;2023-07-29T14:20:27;7.45;;;4.97;;
25069;SDS011;13064;48.162;11.536;2023-07-29T14:22:54;5.85;;;4.85;;
25069;SDS011;13064;48.162;11.536;2023-07-29T14:25:22;5.45;;;4.88;;
25069;SDS011;13064;48.162;11.536;2023-07-29T14:27:50;5.45;;;4.20;;
25069;SDS011;13064;48.162;11.536;2023-07-29T14:30:18;6.00;;;4.97;;
25069;SDS011;13064;48.162;11.536;2023-07-29T14:32:45;6.03;;;4.93;;
25069;SDS011;13064;48.162;11.536;2023-07-29T14:35:13;6.10;;;4.72;;
25069;SDS011;13064;48.162;11.536;2023-07-29T14:37:41;8.57;;;5.65;;
25069;SDS011;13064;48.162;11.536;2023-07-29T14:40:08;7.70;;;5.35;;
25069;SDS011;13064;48.162;11.536;2023-07-29T14:42:36;7.47;;;5.75;;
25069;SDS011;13064;48.162;11.536;2023-07-29T14:45:03;7.05;;;5.32;;
25069;SDS011;13064;48.162;11.536;2023-07-29T14:47:31;7.68;;;5.38;;
25069;SDS011;13064;48.162;11.536;2023-07-29T14:50:01;5.65;;;4.57;;
25069;SDS011;13064;48.162;11.536;2023-07-29T14:52:29;7.45;;;5.43;;
25069;SDS011;13064;48.162;11.536;2023-07-29T14:54:57;6.78;;;4.93;;
25069;SDS011;13064;48.162;11.536;2023-07-29T14:57:24;5.65;;;4.43;;
25069;SDS011;13064;48.162;11.536;2023-07-29T14:59:52;5.60;;;4.97;;
25069;SDS011;13064;48.162;11.536;2023-07-29T15:02:20;6.68;;;5.43;;
25069;SDS011;13064;48.162;11.536;2023-07-29T15:04:49;7.82;;;5.30;;